Current | Forecast
Updated: 7:00 AM EET on February 21, 2018
Observed at Chernovsty, Ukraine
Temperature -2°C
Windchill -8°C
Humidity 86%
Dew Point -4°C
Wind ESE at 22 km/h
Pressure 1018 hPa (Steady)
Conditions Overcast
Visibility 10.0 kilometers
UV 0 out of 16
Clouds Overcast (OVC) : 457 m
Yesterday's Maximum -3°C
Yesterday's Minimum -4°C approx.
Yesterday's Heating Degree Days 39 approx.
Sunrise7:13 AM EET
Sunset5:46 PM EET
Moon Rise9:56 AM EET
Moon Set11:57 PM EET
Moon PhaseMoon Phase
Waxing Crescent
Raw METARMETAR UKLN 210500Z 12006MPS 9999 OVC015 M02/M04 Q1018 R15/320060 NOSIG


Monday
. High: 62° F.
Tuesday
. High: 64° F.
Wednesday
. High: 77° F.
Thursday
. High: 80° F.
Friday
. High: 66° F.
Saturday
. High: 68° F.
Sunday
. High: 68° F.
Monday
. High: 77° F.

Units: English | Metric

Find the Weather for any City, State or Zipcode, or Country:

U.S. State List | Severe Weather | Tropical Storms | Ski Conditions
United States | Canada | Central America | South America | Asia | Europe | Australia | Africa | Islands

Weather Underground

© Copyright 2018
The Weather Company, LLC